Terminal Aerodrome Forecast
Issued by NWS

Home | Current Version | Previous Version | Text Only | Print | Product List | Glossary On
Versions: 1 2 3 4 5 6 7 8 9 10 11 12 13 14 15
476
FTUS44 KTSA 201734
TAFRVS
TAF
KRVS 201734Z 2018/2118 13011KT P6SM SCT250
     FM210100 12005KT P6SM SCT150 BKN250
     FM210700 11006KT P6SM SCT030 BKN120
      TEMPO 2108/2112 5SM -RA BR BKN030
     FM211200 08008KT 5SM -RA BR OVC025=

USA.gov is the U.S. government's official web portal to all federal, state and local government web resources and services.